Time,TemperatureF,DewpointF,PressureIn,WindDirection,WindDirectionDegrees,WindSpeedMPH,WindSpeedGustMPH,Humidity,HourlyPrecipIn,Conditions,Clouds,dailyrainin,SoftwareType,DateUTC
2013-08-11 00:01:00,65.8,60.8,30.09,NNE,13,0.0,0.0,84,0.00,,,0.00,WeatherCatV1.21B27,2013-08-11 04:01:00,
2013-08-11 00:02:00,65.8,60.8,30.09,NNE,13,0.0,0.0,84,0.00,,,0.00,WeatherCatV1.21B27,2013-08-11 04:02:00,
2013-08-11 00:03:00,65.8,60.8,30.09,NNE,13,0.0,0.0,84,0.00,,,0.00,WeatherCatV1.21B27,2013-08-11 04:03:00,
2013-08-11 00:06:00,65.8,60.8,30.09,NNE,13,0.0,0.0,84,0.00,,,0.00,WeatherCatV1.21B27,2013-08-11 04:06:00,
2013-08-11 00:11:00,65.8,60.8,30.09,NNE,13,0.0,0.0,84,0.00,,,0.00,WeatherCatV1.21B27,2013-08-11 04:11:00,
2013-08-11 00:16:00,65.8,60.8,30.09,NNE,13,0.0,0.0,84,0.00,,,0.00,WeatherCatV1.21B27,2013-08-11 04:16:00,
2013-08-11 00:21:00,65.8,60.8,30.09,NNE,13,0.0,0.0,84,0.00,,,0.00,WeatherCatV1.21B27,2013-08-11 04:21:00,
2013-08-11 00:26:00,65.9,60.9,30.09,NNE,13,0.0,0.0,84,0.00,,,0.00,WeatherCatV1.21B27,2013-08-11 04:26:00,
2013-08-11 00:31:00,65.9,60.9,30.09,NNE,13,0.0,0.0,84,0.00,,,0.00,WeatherCatV1.21B27,2013-08-11 04:31:00,
2013-08-11 00:36:00,65.8,60.8,30.09,NNE,13,0.0,0.0,84,0.00,,,0.00,WeatherCatV1.21B27,2013-08-11 04:36:00,
2013-08-11 00:41:00,65.7,59.7,30.09,NNE,13,0.0,0.0,81,0.00,,,0.00,WeatherCatV1.21B27,2013-08-11 04:41:00,
2013-08-11 00:46:00,66.1,59.7,30.09,NNE,13,0.0,0.0,80,0.00,,,0.00,WeatherCatV1.21B27,2013-08-11 04:46:00,
2013-08-11 00:51:00,66.2,58.8,30.10,NNE,13,0.0,0.0,77,0.00,,,0.00,WeatherCatV1.21B27,2013-08-11 04:51:00,
2013-08-11 00:56:00,66.4,57.8,30.09,NNE,13,0.0,0.0,74,0.00,,,0.00,WeatherCatV1.21B27,2013-08-11 04:56:00,
2013-08-11 01:01:00,66.8,57.5,30.09,NNE,13,0.0,0.0,72,0.00,,,0.00,WeatherCatV1.21B27,2013-08-11 05:01:00,
2013-08-11 01:06:00,67.1,57.8,30.09,NNE,13,0.0,0.0,72,0.00,,,0.00,WeatherCatV1.21B27,2013-08-11 05:06:00,
2013-08-11 01:11:00,67.3,58.0,30.09,NNE,13,0.0,0.0,72,0.00,,,0.00,WeatherCatV1.21B27,2013-08-11 05:11:00,
2013-08-11 01:16:00,67.4,57.3,30.09,NNE,13,0.0,0.0,70,0.00,,,0.00,WeatherCatV1.21B27,2013-08-11 05:16:00,
2013-08-11 01:22:00,67.5,56.2,30.09,North,11,0.0,0.0,67,0.00,,,0.00,WeatherCatV1.21B27,2013-08-11 05:22:00,
2013-08-11 01:28:00,67.8,55.6,30.09,North,0,0.0,0.0,65,0.00,,,0.00,WeatherCatV1.21B27,2013-08-11 05:28:00,
2013-08-11 01:33:00,68.0,55.8,30.09,North,0,0.0,0.0,65,0.00,,,0.00,WeatherCatV1.21B27,2013-08-11 05:33:00,
2013-08-11 01:38:00,68.0,55.8,30.09,North,0,0.0,0.0,65,0.00,,,0.00,WeatherCatV1.21B27,2013-08-11 05:38:00,
2013-08-11 01:43:00,68.0,56.2,30.09,North,0,0.0,0.0,66,0.00,,,0.00,WeatherCatV1.21B27,2013-08-11 05:43:00,
2013-08-11 01:48:00,67.9,56.9,30.09,North,0,0.0,0.0,68,0.00,,,0.00,WeatherCatV1.21B27,2013-08-11 05:48:00,
2013-08-11 01:53:00,67.7,56.8,30.09,North,0,0.0,0.0,68,0.00,,,0.00,WeatherCatV1.21B27,2013-08-11 05:53:00,
2013-08-11 01:58:00,67.5,57.0,30.09,North,0,0.0,0.0,69,0.00,,,0.00,WeatherCatV1.21B27,2013-08-11 05:58:00,
2013-08-11 02:03:00,67.3,55.5,30.09,North,0,0.0,0.0,66,0.00,,,0.00,WeatherCatV1.21B27,2013-08-11 06:03:00,
2013-08-11 02:08:00,67.3,57.2,30.09,North,0,0.0,0.0,70,0.00,,,0.00,WeatherCatV1.21B27,2013-08-11 06:08:00,
2013-08-11 02:13:00,67.1,56.2,30.09,North,0,0.0,0.0,68,0.00,,,0.00,WeatherCatV1.21B27,2013-08-11 06:13:00,
2013-08-11 02:19:00,67.0,57.3,30.09,North,0,0.0,0.0,71,0.00,,,0.00,WeatherCatV1.21B27,2013-08-11 06:19:00,
2013-08-11 02:24:00,66.9,56.8,30.09,North,0,0.0,0.0,70,0.00,,,0.00,WeatherCatV1.21B27,2013-08-11 06:24:00,
2013-08-11 02:29:00,66.9,56.8,30.09,North,0,0.0,0.0,70,0.00,,,0.00,WeatherCatV1.21B27,2013-08-11 06:29:00,
2013-08-11 02:34:00,66.7,56.6,30.09,North,0,0.0,0.0,70,0.00,,,0.00,WeatherCatV1.21B27,2013-08-11 06:34:00,
2013-08-11 02:39:00,66.5,55.2,30.09,North,0,0.0,0.0,67,0.00,,,0.00,WeatherCatV1.21B27,2013-08-11 06:39:00,
2013-08-11 02:45:00,66.5,55.6,30.09,North,0,0.0,0.0,68,0.00,,,0.00,WeatherCatV1.21B27,2013-08-11 06:45:00,
2013-08-11 02:51:00,66.6,56.1,30.09,North,0,0.0,0.0,69,0.00,,,0.00,WeatherCatV1.21B27,2013-08-11 06:51:00,
2013-08-11 02:56:00,66.6,55.7,30.09,North,0,0.0,0.0,68,0.00,,,0.00,WeatherCatV1.21B27,2013-08-11 06:56:00,
2013-08-11 03:01:00,66.5,54.8,30.09,North,0,0.0,0.0,66,0.00,,,0.00,WeatherCatV1.21B27,2013-08-11 07:01:00,
2013-08-11 03:07:00,66.6,56.1,30.09,North,0,0.0,0.0,69,0.00,,,0.00,WeatherCatV1.21B27,2013-08-11 07:07:00,
2013-08-11 03:12:00,66.6,56.5,30.09,North,0,0.0,0.0,70,0.00,,,0.00,WeatherCatV1.21B27,2013-08-11 07:12:00,
2013-08-11 03:17:00,66.5,56.0,30.09,North,0,0.0,0.0,69,0.00,,,0.00,WeatherCatV1.21B27,2013-08-11 07:17:00,
2013-08-11 03:22:00,66.4,55.5,30.09,North,0,0.0,0.0,68,0.00,,,0.00,WeatherCatV1.21B27,2013-08-11 07:22:00,
2013-08-11 03:28:00,66.4,55.9,30.09,North,0,0.0,0.0,69,0.00,,,0.00,WeatherCatV1.21B27,2013-08-11 07:28:00,
2013-08-11 03:33:00,66.4,56.3,30.09,North,0,0.0,0.0,70,0.00,,,0.00,WeatherCatV1.21B27,2013-08-11 07:33:00,
2013-08-11 03:39:00,66.3,56.2,30.09,North,0,0.0,0.0,70,0.00,,,0.00,WeatherCatV1.21B27,2013-08-11 07:39:00,
2013-08-11 03:44:00,66.2,56.9,30.09,North,0,0.0,0.0,72,0.00,,,0.00,WeatherCatV1.21B27,2013-08-11 07:44:00,
2013-08-11 03:49:00,66.0,57.5,30.09,North,0,0.0,0.0,74,0.00,,,0.00,WeatherCatV1.21B27,2013-08-11 07:49:00,
2013-08-11 03:54:00,65.8,56.9,30.09,North,0,0.0,0.0,73,0.00,,,0.00,WeatherCatV1.21B27,2013-08-11 07:54:00,
2013-08-11 03:59:00,65.7,58.3,30.09,North,0,0.0,0.0,77,0.00,,,0.00,WeatherCatV1.21B27,2013-08-11 07:59:00,
2013-08-11 04:04:00,65.2,57.4,30.09,North,0,0.0,0.0,76,0.00,,,0.00,WeatherCatV1.21B27,2013-08-11 08:04:00,
2013-08-11 04:09:00,65.0,57.6,30.09,North,0,0.0,0.0,77,0.00,,,0.00,WeatherCatV1.21B27,2013-08-11 08:09:00,
2013-08-11 04:14:00,64.8,57.4,30.09,North,0,0.0,0.0,77,0.00,,,0.00,WeatherCatV1.21B27,2013-08-11 08:14:00,
2013-08-11 04:19:00,64.8,57.8,30.09,North,0,0.0,0.0,78,0.00,,,0.00,WeatherCatV1.21B27,2013-08-11 08:19:00,
2013-08-11 04:24:00,64.6,57.6,30.09,North,0,0.0,0.0,78,0.00,,,0.00,WeatherCatV1.21B27,2013-08-11 08:24:00,
2013-08-11 04:29:00,64.5,57.5,30.09,North,0,0.0,0.0,78,0.00,,,0.00,WeatherCatV1.21B27,2013-08-11 08:29:00,
2013-08-11 04:34:00,64.3,57.3,30.09,North,0,0.0,0.0,78,0.00,,,0.00,WeatherCatV1.21B27,2013-08-11 08:34:00,
2013-08-11 04:39:00,64.2,57.5,30.10,North,0,0.0,0.0,79,0.00,,,0.00,WeatherCatV1.21B27,2013-08-11 08:39:00,
2013-08-11 04:46:00,64.2,57.5,30.10,North,0,0.0,0.0,79,0.00,,,0.00,WeatherCatV1.21B27,2013-08-11 08:46:00,
2013-08-11 04:54:00,64.1,57.5,30.10,North,0,0.0,0.0,79,0.00,,,0.00,WeatherCatV1.21B27,2013-08-11 08:54:00,
2013-08-11 04:59:00,64.0,57.7,30.10,North,0,0.0,0.0,80,0.00,,,0.00,WeatherCatV1.21B27,2013-08-11 08:59:00,
2013-08-11 05:05:00,64.1,58.1,30.10,North,0,0.0,0.0,81,0.00,,,0.00,WeatherCatV1.21B27,2013-08-11 09:05:00,
2013-08-11 05:10:00,64.1,58.5,30.10,North,0,0.0,0.0,82,0.00,,,0.00,WeatherCatV1.21B27,2013-08-11 09:10:00,
2013-08-11 05:15:00,63.9,58.0,30.10,North,0,0.0,0.0,81,0.00,,,0.00,WeatherCatV1.21B27,2013-08-11 09:15:00,
2013-08-11 05:20:00,63.7,58.1,30.09,North,0,0.0,0.0,82,0.00,,,0.00,WeatherCatV1.21B27,2013-08-11 09:20:00,
2013-08-11 05:25:00,63.5,57.6,30.09,North,0,0.0,0.0,81,0.00,,,0.00,WeatherCatV1.21B27,2013-08-11 09:25:00,
2013-08-11 05:30:00,63.3,57.4,30.09,North,0,0.0,0.0,81,0.00,,,0.00,WeatherCatV1.21B27,2013-08-11 09:30:00,
2013-08-11 05:35:00,63.2,57.3,30.09,North,0,0.0,0.0,81,0.00,,,0.00,WeatherCatV1.21B27,2013-08-11 09:35:00,
2013-08-11 05:40:00,63.0,57.1,30.09,North,0,0.0,0.0,81,0.00,,,0.00,WeatherCatV1.21B27,2013-08-11 09:40:00,
2013-08-11 05:45:00,62.8,57.2,30.09,North,0,0.0,0.0,82,0.00,,,0.00,WeatherCatV1.21B27,2013-08-11 09:45:00,
2013-08-11 05:50:00,62.6,57.0,30.09,North,0,0.0,0.0,82,0.00,,,0.00,WeatherCatV1.21B27,2013-08-11 09:50:00,
2013-08-11 05:55:00,62.3,56.7,30.09,North,0,0.0,0.0,82,0.00,,,0.00,WeatherCatV1.21B27,2013-08-11 09:55:00,
2013-08-11 06:01:00,62.1,56.9,30.09,North,0,0.0,0.0,83,0.00,,,0.00,WeatherCatV1.21B27,2013-08-11 10:01:00,
2013-08-11 06:06:00,61.9,56.7,30.10,North,0,0.0,0.0,83,0.00,,,0.00,WeatherCatV1.21B27,2013-08-11 10:06:00,
2013-08-11 06:11:00,61.7,56.8,30.10,North,0,0.0,0.0,84,0.00,,,0.00,WeatherCatV1.21B27,2013-08-11 10:11:00,
2013-08-11 06:17:00,61.5,56.6,30.10,North,0,0.0,0.0,84,0.00,,,0.00,WeatherCatV1.21B27,2013-08-11 10:17:00,
2013-08-11 06:22:00,61.3,56.4,30.10,North,0,0.0,0.0,84,0.00,,,0.00,WeatherCatV1.21B27,2013-08-11 10:22:00,
2013-08-11 06:28:00,61.1,56.5,30.10,North,0,0.0,0.0,85,0.00,,,0.00,WeatherCatV1.21B27,2013-08-11 10:28:00,
2013-08-11 06:33:00,60.9,56.4,30.10,North,0,0.0,0.0,85,0.00,,,0.00,WeatherCatV1.21B27,2013-08-11 10:33:00,
2013-08-11 06:38:00,60.8,56.6,30.10,North,0,0.0,0.0,86,0.00,,,0.00,WeatherCatV1.21B27,2013-08-11 10:38:00,
2013-08-11 06:43:00,60.6,56.4,30.11,North,0,0.0,0.0,86,0.00,,,0.00,WeatherCatV1.21B27,2013-08-11 10:43:00,
2013-08-11 06:49:00,60.4,56.2,30.11,North,0,0.0,0.0,86,0.00,,,0.00,WeatherCatV1.21B27,2013-08-11 10:49:00,
2013-08-11 06:54:00,60.3,56.4,30.11,North,0,0.0,0.0,87,0.00,,,0.00,WeatherCatV1.21B27,2013-08-11 10:54:00,
2013-08-11 06:59:00,60.1,56.2,30.11,North,0,0.0,0.0,87,0.00,,,0.00,WeatherCatV1.21B27,2013-08-11 10:59:00,
2013-08-11 07:04:00,60.1,56.2,30.11,North,0,0.0,0.0,87,0.00,,,0.00,WeatherCatV1.21B27,2013-08-11 11:04:00,
2013-08-11 07:09:00,60.0,56.1,30.11,North,0,0.0,0.0,87,0.00,,,0.00,WeatherCatV1.21B27,2013-08-11 11:09:00,
2013-08-11 07:14:00,60.0,56.1,30.11,North,350,0.0,0.0,87,0.00,,,0.00,WeatherCatV1.21B27,2013-08-11 11:14:00,
2013-08-11 07:19:00,60.0,56.4,30.11,North,351,0.0,0.0,88,0.00,,,0.00,WeatherCatV1.21B27,2013-08-11 11:19:00,
2013-08-11 07:24:00,60.1,56.5,30.11,North,351,0.0,0.0,88,0.00,,,0.00,WeatherCatV1.21B27,2013-08-11 11:24:00,
2013-08-11 07:29:00,60.2,56.6,30.11,North,350,0.0,0.0,88,0.00,,,0.00,WeatherCatV1.21B27,2013-08-11 11:29:00,
2013-08-11 07:36:00,60.4,56.8,30.11,North,350,0.0,0.0,88,0.00,,,0.00,WeatherCatV1.21B27,2013-08-11 11:36:00,
2013-08-11 07:41:00,60.5,56.9,30.11,North,351,0.0,0.0,88,0.00,,,0.00,WeatherCatV1.21B27,2013-08-11 11:41:00,
2013-08-11 07:46:00,60.7,57.4,30.11,North,351,0.0,0.0,89,0.00,,,0.00,WeatherCatV1.21B27,2013-08-11 11:46:00,
2013-08-11 07:51:00,60.8,57.5,30.11,North,351,0.0,0.0,89,0.00,,,0.00,WeatherCatV1.21B27,2013-08-11 11:51:00,
2013-08-11 07:56:00,61.0,57.4,30.11,North,350,0.0,0.0,88,0.00,,,0.00,WeatherCatV1.21B27,2013-08-11 11:56:00,
2013-08-11 08:01:00,61.3,57.7,30.12,North,351,0.0,0.0,88,0.00,,,0.00,WeatherCatV1.21B27,2013-08-11 12:01:00,
2013-08-11 08:06:00,61.6,58.3,30.12,North,351,0.0,0.0,89,0.00,,,0.00,WeatherCatV1.21B27,2013-08-11 12:06:00,
2013-08-11 08:11:00,61.8,58.2,30.12,NNE,22,0.0,0.0,88,0.00,,,0.00,WeatherCatV1.21B27,2013-08-11 12:11:00,
2013-08-11 08:16:00,62.2,58.6,30.12,NNE,21,0.0,0.0,88,0.00,,,0.00,WeatherCatV1.21B27,2013-08-11 12:16:00,
2013-08-11 08:21:00,62.5,58.9,30.12,NNE,21,0.0,0.0,88,0.00,,,0.00,WeatherCatV1.21B27,2013-08-11 12:21:00,
2013-08-11 08:26:00,62.8,59.2,30.12,NNE,21,0.0,0.0,88,0.00,,,0.00,WeatherCatV1.21B27,2013-08-11 12:26:00,
2013-08-11 08:34:00,63.8,59.8,30.12,NNE,22,0.0,0.0,87,0.00,,,0.00,WeatherCatV1.21B27,2013-08-11 12:34:00,
2013-08-11 08:39:00,64.6,60.0,30.12,NNE,22,0.0,0.0,85,0.00,,,0.00,WeatherCatV1.21B27,2013-08-11 12:39:00,
2013-08-11 08:44:00,65.5,59.2,30.12,NNE,22,0.0,0.0,80,0.00,,,0.00,WeatherCatV1.21B27,2013-08-11 12:44:00,
2013-08-11 08:49:00,66.6,59.5,30.12,NNE,22,0.0,0.0,78,0.00,,,0.00,WeatherCatV1.21B27,2013-08-11 12:49:00,
2013-08-11 08:54:00,67.7,59.5,30.12,NNE,22,0.0,0.0,75,0.00,,,0.00,WeatherCatV1.21B27,2013-08-11 12:54:00,
2013-08-11 08:59:00,69.1,60.8,30.11,NNE,22,0.0,0.0,75,0.00,,,0.00,WeatherCatV1.21B27,2013-08-11 12:59:00,
2013-08-11 09:05:00,70.5,60.2,30.11,NNE,13,0.0,0.0,70,0.00,,,0.00,WeatherCatV1.21B27,2013-08-11 13:05:00,
2013-08-11 09:10:00,71.8,60.7,30.11,NNE,13,0.0,0.0,68,0.00,,,0.00,WeatherCatV1.21B27,2013-08-11 13:10:00,
2013-08-11 09:15:00,72.4,60.0,30.11,NNE,13,0.0,0.0,65,0.00,,,0.00,WeatherCatV1.21B27,2013-08-11 13:15:00,
2013-08-11 09:20:00,72.8,59.0,30.11,North,11,0.0,0.0,62,0.00,,,0.00,WeatherCatV1.21B27,2013-08-11 13:20:00,
2013-08-11 09:25:00,72.7,59.4,30.11,North,11,0.0,0.0,63,0.00,,,0.00,WeatherCatV1.21B27,2013-08-11 13:25:00,
2013-08-11 09:30:00,73.0,59.2,30.11,North,11,0.0,0.0,62,0.00,,,0.00,WeatherCatV1.21B27,2013-08-11 13:30:00,
2013-08-11 09:35:00,73.6,59.3,30.10,North,11,0.0,0.0,61,0.00,,,0.00,WeatherCatV1.21B27,2013-08-11 13:35:00,
2013-08-11 09:40:00,74.0,60.6,30.10,North,0,0.0,0.0,63,0.00,,,0.00,WeatherCatV1.21B27,2013-08-11 13:40:00,
2013-08-11 09:45:00,74.5,60.2,30.10,North,0,0.0,0.0,61,0.00,,,0.00,WeatherCatV1.21B27,2013-08-11 13:45:00,
2013-08-11 09:50:00,75.1,60.2,30.10,SE,146,0.0,0.0,60,0.00,,,0.00,WeatherCatV1.21B27,2013-08-11 13:50:00,
2013-08-11 09:55:00,75.9,61.0,30.10,SE,146,0.0,0.0,60,0.00,,,0.00,WeatherCatV1.21B27,2013-08-11 13:55:00,
2013-08-11 10:00:00,76.1,58.7,30.10,ESE,103,0.0,0.0,55,0.00,,,0.00,WeatherCatV1.21B27,2013-08-11 14:00:00,
2013-08-11 10:05:00,76.0,59.2,30.10,ENE,75,0.0,0.0,56,0.00,,,0.00,WeatherCatV1.21B27,2013-08-11 14:05:00,
2013-08-11 10:10:00,75.4,57.6,30.10,ENE,75,0.0,0.0,54,0.00,,,0.00,WeatherCatV1.21B27,2013-08-11 14:10:00,
2013-08-11 10:15:00,75.0,56.7,30.11,SSE,157,0.0,0.0,53,0.00,,,0.00,WeatherCatV1.21B27,2013-08-11 14:15:00,
2013-08-11 10:20:00,75.3,59.0,30.11,SSE,156,0.0,0.0,57,0.00,,,0.00,WeatherCatV1.21B27,2013-08-11 14:20:00,
2013-08-11 10:25:00,76.0,58.1,30.11,NNW,342,0.0,0.0,54,0.00,,,0.00,WeatherCatV1.21B27,2013-08-11 14:25:00,
2013-08-11 10:30:00,75.8,57.4,30.11,East,86,0.0,0.0,53,0.00,,,0.00,WeatherCatV1.21B27,2013-08-11 14:30:00,
2013-08-11 10:35:00,74.9,59.1,30.10,East,86,0.0,0.0,58,0.00,,,0.00,WeatherCatV1.21B27,2013-08-11 14:35:00,
2013-08-11 10:40:00,75.3,61.4,30.11,East,86,0.0,0.0,62,0.00,,,0.00,WeatherCatV1.21B27,2013-08-11 14:40:00,
2013-08-11 10:45:00,75.6,57.8,30.10,East,86,0.0,0.0,54,0.00,,,0.00,WeatherCatV1.21B27,2013-08-11 14:45:00,
2013-08-11 10:50:00,75.0,56.7,30.10,East,79,0.0,0.0,53,0.00,,,0.00,WeatherCatV1.21B27,2013-08-11 14:50:00,
2013-08-11 10:55:00,74.6,57.3,30.11,North,5,0.0,0.0,55,0.00,,,0.00,WeatherCatV1.21B27,2013-08-11 14:55:00,
2013-08-11 11:00:00,74.3,55.0,30.11,North,5,0.0,0.0,51,0.00,,,0.00,WeatherCatV1.21B27,2013-08-11 15:00:00,
2013-08-11 11:05:00,74.0,55.2,30.11,South,188,0.0,0.0,52,0.00,,,0.00,WeatherCatV1.21B27,2013-08-11 15:05:00,
2013-08-11 11:11:00,73.7,59.4,30.11,NNE,24,0.0,0.0,61,0.00,,,0.00,WeatherCatV1.21B27,2013-08-11 15:11:00,
2013-08-11 11:17:00,75.7,61.3,30.10,North,350,0.0,0.0,61,0.00,,,0.00,WeatherCatV1.21B27,2013-08-11 15:17:00,
2013-08-11 11:22:00,75.4,53.8,30.10,NNE,18,0.0,0.0,47,0.00,,,0.00,WeatherCatV1.21B27,2013-08-11 15:22:00,
2013-08-11 11:28:00,76.0,61.1,30.10,North,9,0.0,0.0,60,0.00,,,0.00,WeatherCatV1.21B27,2013-08-11 15:28:00,
2013-08-11 11:33:00,76.5,58.1,30.10,NNE,29,0.0,0.0,53,0.00,,,0.00,WeatherCatV1.21B27,2013-08-11 15:33:00,
2013-08-11 11:38:00,76.7,58.8,30.10,ESE,104,0.0,0.0,54,0.00,,,0.00,WeatherCatV1.21B27,2013-08-11 15:38:00,
2013-08-11 11:44:00,76.3,54.6,30.10,ESE,104,0.0,0.0,47,0.00,,,0.00,WeatherCatV1.21B27,2013-08-11 15:44:00,
2013-08-11 11:49:00,75.9,56.5,30.10,North,0,0.0,0.0,51,0.00,,,0.00,WeatherCatV1.21B27,2013-08-11 15:49:00,
2013-08-11 11:54:00,76.1,60.2,30.10,North,0,0.0,0.0,58,0.00,,,0.00,WeatherCatV1.21B27,2013-08-11 15:54:00,
2013-08-11 12:00:00,76.1,57.2,30.09,NNE,24,5.0,5.0,52,0.00,,,0.00,WeatherCatV1.21B27,2013-08-11 16:00:00,
2013-08-11 12:05:00,76.3,56.3,30.09,NE,41,2.0,5.0,50,0.00,,,0.00,WeatherCatV1.21B27,2013-08-11 16:05:00,
2013-08-11 12:10:00,76.6,58.2,30.09,ENE,67,0.0,3.0,53,0.00,,,0.00,WeatherCatV1.21B27,2013-08-11 16:10:00,
2013-08-11 12:15:00,76.0,57.6,30.09,NNE,30,0.0,4.0,53,0.00,,,0.00,WeatherCatV1.21B27,2013-08-11 16:15:00,
2013-08-11 12:20:00,76.6,58.7,30.09,NNE,13,3.0,5.0,54,0.00,,,0.00,WeatherCatV1.21B27,2013-08-11 16:20:00,
2013-08-11 12:26:00,77.6,61.1,30.09,North,5,0.0,0.0,57,0.00,,,0.00,WeatherCatV1.21B27,2013-08-11 16:26:00,
2013-08-11 12:31:00,78.1,60.1,30.08,NE,44,0.0,2.0,54,0.00,,,0.00,WeatherCatV1.21B27,2013-08-11 16:31:00,
2013-08-11 12:36:00,77.9,58.8,30.08,NE,53,1.0,4.0,52,0.00,,,0.00,WeatherCatV1.21B27,2013-08-11 16:36:00,
2013-08-11 12:41:00,76.7,53.7,30.08,North,0,2.0,6.0,45,0.00,,,0.00,WeatherCatV1.21B27,2013-08-11 16:41:00,
2013-08-11 12:46:00,76.2,56.7,30.08,NNE,13,2.0,5.0,51,0.00,,,0.00,WeatherCatV1.21B27,2013-08-11 16:46:00,
2013-08-11 12:52:00,77.6,59.6,30.08,NNE,23,0.0,4.0,54,0.00,,,0.00,WeatherCatV1.21B27,2013-08-11 16:52:00,
2013-08-11 13:00:00,77.6,60.1,30.08,North,5,0.0,4.0,55,0.00,,,0.00,WeatherCatV1.21B27,2013-08-11 17:00:00,
2013-08-11 13:05:00,77.7,55.8,30.08,NNE,29,0.0,7.0,47,0.00,,,0.00,WeatherCatV1.21B27,2013-08-11 17:05:00,
2013-08-11 13:11:00,76.6,57.6,30.08,NNE,19,0.0,1.0,52,0.00,,,0.00,WeatherCatV1.21B27,2013-08-11 17:11:00,
2013-08-11 13:16:00,76.2,53.9,30.08,NE,43,4.0,5.0,46,0.00,,,0.00,WeatherCatV1.21B27,2013-08-11 17:16:00,
2013-08-11 13:23:00,76.1,55.5,30.08,East,92,1.0,3.0,49,0.00,,,0.00,WeatherCatV1.21B27,2013-08-11 17:23:00,
2013-08-11 13:28:00,76.4,54.7,30.08,NE,44,1.0,6.0,47,0.00,,,0.00,WeatherCatV1.21B27,2013-08-11 17:28:00,
2013-08-11 13:33:00,76.5,55.9,30.07,NE,44,3.0,6.0,49,0.00,,,0.00,WeatherCatV1.21B27,2013-08-11 17:33:00,
2013-08-11 13:38:00,76.5,56.5,30.07,North,0,5.0,5.0,50,0.00,,,0.00,WeatherCatV1.21B27,2013-08-11 17:38:00,
2013-08-11 13:43:00,76.8,55.0,30.07,NNW,340,3.0,6.0,47,0.00,,,0.00,WeatherCatV1.21B27,2013-08-11 17:43:00,
2013-08-11 13:49:00,77.2,57.7,30.07,NNW,336,4.0,4.0,51,0.00,,,0.00,WeatherCatV1.21B27,2013-08-11 17:49:00,
2013-08-11 13:54:00,77.6,57.5,30.07,North,5,4.0,7.0,50,0.00,,,0.00,WeatherCatV1.21B27,2013-08-11 17:54:00,
2013-08-11 13:59:00,77.9,56.0,30.07,North,5,0.0,4.0,47,0.00,,,0.00,WeatherCatV1.21B27,2013-08-11 17:59:00,
2013-08-11 14:04:00,78.0,58.4,30.07,NE,51,1.0,2.0,51,0.00,,,0.00,WeatherCatV1.21B27,2013-08-11 18:04:00,
2013-08-11 14:09:00,76.9,55.7,30.07,NNW,330,2.0,5.0,48,0.00,,,0.00,WeatherCatV1.21B27,2013-08-11 18:09:00,
2013-08-11 14:14:00,76.6,57.1,30.07,NNW,347,2.0,3.0,51,0.00,,,0.00,WeatherCatV1.21B27,2013-08-11 18:14:00,
2013-08-11 14:19:00,77.6,58.0,30.07,NE,47,0.0,5.0,51,0.00,,,0.00,WeatherCatV1.21B27,2013-08-11 18:19:00,
2013-08-11 14:24:00,78.0,56.1,30.07,East,80,0.0,9.0,47,0.00,,,0.00,WeatherCatV1.21B27,2013-08-11 18:24:00,
2013-08-11 14:30:00,77.8,58.2,30.07,North,5,1.0,4.0,51,0.00,,,0.00,WeatherCatV1.21B27,2013-08-11 18:30:00,
2013-08-11 14:35:00,77.6,58.0,30.07,North,350,0.0,2.0,51,0.00,,,0.00,WeatherCatV1.21B27,2013-08-11 18:35:00,
2013-08-11 14:41:00,78.1,56.8,30.07,NNW,345,2.0,3.0,48,0.00,,,0.00,WeatherCatV1.21B27,2013-08-11 18:41:00,
2013-08-11 14:46:00,77.9,57.2,30.07,NE,51,1.0,5.0,49,0.00,,,0.00,WeatherCatV1.21B27,2013-08-11 18:46:00,
2013-08-11 14:51:00,78.5,60.5,30.06,NNE,30,0.0,1.0,54,0.00,,,0.00,WeatherCatV1.21B27,2013-08-11 18:51:00,
2013-08-11 14:56:00,79.0,59.8,30.06,North,9,0.0,2.0,52,0.00,,,0.00,WeatherCatV1.21B27,2013-08-11 18:56:00,
2013-08-11 15:01:00,79.2,56.6,30.06,North,355,2.0,4.0,46,0.00,,,0.00,WeatherCatV1.21B27,2013-08-11 19:01:00,
2013-08-11 15:06:00,78.6,57.8,30.06,North,351,0.0,0.0,49,0.00,,,0.00,WeatherCatV1.21B27,2013-08-11 19:06:00,
2013-08-11 15:11:00,78.8,57.4,30.06,NE,53,0.0,0.0,48,0.00,,,0.00,WeatherCatV1.21B27,2013-08-11 19:11:00,
2013-08-11 15:17:00,78.2,55.7,30.06,North,0,3.0,6.0,46,0.00,,,0.00,WeatherCatV1.21B27,2013-08-11 19:17:00,
2013-08-11 15:22:00,76.9,57.9,30.06,NNW,348,3.0,7.0,52,0.00,,,0.00,WeatherCatV1.21B27,2013-08-11 19:22:00,
2013-08-11 15:28:00,78.1,56.2,30.05,NNE,18,5.0,6.0,47,0.00,,,0.00,WeatherCatV1.21B27,2013-08-11 19:28:00,
2013-08-11 15:33:00,77.4,58.4,30.05,North,0,2.0,3.0,52,0.00,,,0.00,WeatherCatV1.21B27,2013-08-11 19:33:00,
2013-08-11 15:38:00,77.2,57.7,30.05,NNW,331,0.0,7.0,51,0.00,,,0.00,WeatherCatV1.21B27,2013-08-11 19:38:00,
2013-08-11 15:43:00,76.9,56.8,30.05,NNW,348,0.0,6.0,50,0.00,,,0.00,WeatherCatV1.21B27,2013-08-11 19:43:00,
2013-08-11 15:50:00,77.6,56.9,30.05,North,9,1.0,5.0,49,0.00,,,0.00,WeatherCatV1.21B27,2013-08-11 19:50:00,
2013-08-11 15:55:00,77.3,57.7,30.05,NNE,33,3.0,6.0,51,0.00,,,0.00,WeatherCatV1.21B27,2013-08-11 19:55:00,
2013-08-11 16:00:00,77.1,58.6,30.05,NE,42,1.0,5.0,53,0.00,,,0.00,WeatherCatV1.21B27,2013-08-11 20:00:00,
2013-08-11 16:05:00,77.6,56.9,30.04,North,9,2.0,9.0,49,0.00,,,0.00,WeatherCatV1.21B27,2013-08-11 20:05:00,
2013-08-11 16:11:00,77.0,58.5,30.04,NE,48,0.0,0.0,53,0.00,,,0.00,WeatherCatV1.21B27,2013-08-11 20:11:00,
2013-08-11 16:16:00,76.7,56.6,30.04,North,5,2.0,6.0,50,0.00,,,0.00,WeatherCatV1.21B27,2013-08-11 20:16:00,
2013-08-11 16:21:00,76.5,58.1,30.05,NNW,348,0.0,3.0,53,0.00,,,0.00,WeatherCatV1.21B27,2013-08-11 20:21:00,
2013-08-11 16:26:00,76.6,57.6,30.05,NNE,21,1.0,5.0,52,0.00,,,0.00,WeatherCatV1.21B27,2013-08-11 20:26:00,
2013-08-11 16:31:00,76.8,57.3,30.05,NNW,346,1.0,6.0,51,0.00,,,0.00,WeatherCatV1.21B27,2013-08-11 20:31:00,
2013-08-11 16:36:00,77.0,58.0,30.04,North,5,0.0,4.0,52,0.00,,,0.00,WeatherCatV1.21B27,2013-08-11 20:36:00,
2013-08-11 16:41:00,77.3,57.7,30.04,North,351,7.0,7.0,51,0.00,,,0.00,WeatherCatV1.21B27,2013-08-11 20:41:00,
2013-08-11 16:46:00,77.2,57.7,30.04,NNW,345,4.0,5.0,51,0.00,,,0.00,WeatherCatV1.21B27,2013-08-11 20:46:00,
2013-08-11 16:51:00,77.2,57.7,30.04,NNE,14,1.0,5.0,51,0.00,,,0.00,WeatherCatV1.21B27,2013-08-11 20:51:00,
2013-08-11 16:56:00,77.4,58.9,30.04,North,0,1.0,4.0,53,0.00,,,0.00,WeatherCatV1.21B27,2013-08-11 20:56:00,
2013-08-11 17:02:00,77.5,59.5,30.04,NNE,18,0.0,3.0,54,0.00,,,0.00,WeatherCatV1.21B27,2013-08-11 21:02:00,
2013-08-11 17:07:00,77.2,58.7,30.04,ENE,68,0.0,3.0,53,0.00,,,0.00,WeatherCatV1.21B27,2013-08-11 21:07:00,
2013-08-11 17:12:00,77.3,59.3,30.04,NE,48,0.0,1.0,54,0.00,,,0.00,WeatherCatV1.21B27,2013-08-11 21:12:00,
2013-08-11 17:17:00,77.5,59.5,30.03,NNW,341,0.0,3.0,54,0.00,,,0.00,WeatherCatV1.21B27,2013-08-11 21:17:00,
2013-08-11 17:23:00,77.3,57.2,30.04,North,355,0.0,4.0,50,0.00,,,0.00,WeatherCatV1.21B27,2013-08-11 21:23:00,
2013-08-11 17:28:00,76.9,58.4,30.04,NW,315,0.0,9.0,53,0.00,,,0.00,WeatherCatV1.21B27,2013-08-11 21:28:00,
2013-08-11 17:33:00,76.6,57.1,30.04,ENE,63,0.0,5.0,51,0.00,,,0.00,WeatherCatV1.21B27,2013-08-11 21:33:00,
2013-08-11 17:38:00,76.5,57.5,30.04,North,350,0.0,4.0,52,0.00,,,0.00,WeatherCatV1.21B27,2013-08-11 21:38:00,
2013-08-11 17:43:00,76.6,58.2,30.04,NNW,348,0.0,0.0,53,0.00,,,0.00,WeatherCatV1.21B27,2013-08-11 21:43:00,
2013-08-11 17:49:00,76.8,57.8,30.04,NE,46,0.0,5.0,52,0.00,,,0.00,WeatherCatV1.21B27,2013-08-11 21:49:00,
2013-08-11 17:55:00,76.9,57.9,30.03,North,0,0.0,4.0,52,0.00,,,0.00,WeatherCatV1.21B27,2013-08-11 21:55:00,
2013-08-11 18:00:00,77.0,58.0,30.04,NE,49,0.0,5.0,52,0.00,,,0.00,WeatherCatV1.21B27,2013-08-11 22:00:00,
2013-08-11 18:06:00,76.9,59.0,30.03,NE,44,1.0,1.0,54,0.00,,,0.00,WeatherCatV1.21B27,2013-08-11 22:06:00,
2013-08-11 18:12:00,77.0,57.5,30.04,North,0,0.0,4.0,51,0.00,,,0.00,WeatherCatV1.21B27,2013-08-11 22:12:00,
2013-08-11 18:18:00,76.9,57.9,30.04,NE,49,0.0,3.0,52,0.00,,,0.00,WeatherCatV1.21B27,2013-08-11 22:18:00,
2013-08-11 18:24:00,77.0,58.0,30.04,NNW,342,2.0,4.0,52,0.00,,,0.00,WeatherCatV1.21B27,2013-08-11 22:24:00,
2013-08-11 18:30:00,76.8,57.3,30.03,NNE,25,0.0,5.0,51,0.00,,,0.00,WeatherCatV1.21B27,2013-08-11 22:30:00,
2013-08-11 18:35:00,76.7,56.6,30.03,North,351,2.0,4.0,50,0.00,,,0.00,WeatherCatV1.21B27,2013-08-11 22:35:00,
2013-08-11 18:40:00,76.7,56.6,30.03,NNE,22,1.0,4.0,50,0.00,,,0.00,WeatherCatV1.21B27,2013-08-11 22:40:00,
2013-08-11 18:45:00,76.8,60.4,30.03,NNE,22,0.0,4.0,57,0.00,,,0.00,WeatherCatV1.21B27,2013-08-11 22:45:00,
2013-08-11 18:50:00,77.1,59.1,30.02,NNE,22,0.0,3.0,54,0.00,,,0.00,WeatherCatV1.21B27,2013-08-11 22:50:00,
2013-08-11 18:55:00,77.5,60.5,30.02,NNE,22,0.0,0.0,56,0.00,,,0.00,WeatherCatV1.21B27,2013-08-11 22:55:00,
2013-08-11 19:00:00,77.9,60.4,30.02,NNE,22,0.0,0.0,55,0.00,,,0.00,WeatherCatV1.21B27,2013-08-11 23:00:00,
2013-08-11 19:05:00,77.9,58.8,30.02,NNE,22,0.0,4.0,52,0.00,,,0.00,WeatherCatV1.21B27,2013-08-11 23:05:00,
2013-08-11 19:15:00,77.8,60.8,30.02,NNE,22,0.0,3.0,56,0.00,,,0.00,WeatherCatV1.21B27,2013-08-11 23:15:00,
2013-08-11 19:21:00,77.1,59.2,30.01,NNE,19,0.0,0.0,54,0.00,,,0.00,WeatherCatV1.21B27,2013-08-11 23:21:00,
2013-08-11 19:26:00,76.9,58.4,30.01,NNE,19,0.0,0.0,53,0.00,,,0.00,WeatherCatV1.21B27,2013-08-11 23:26:00,
2013-08-11 19:31:00,76.7,58.3,30.01,NNE,19,0.0,0.0,53,0.00,,,0.00,WeatherCatV1.21B27,2013-08-11 23:31:00,
2013-08-11 19:36:00,76.2,57.8,30.01,NNE,19,0.0,0.0,53,0.00,,,0.00,WeatherCatV1.21B27,2013-08-11 23:36:00,
2013-08-11 19:42:00,75.3,57.5,30.01,NNE,19,0.0,0.0,54,0.00,,,0.00,WeatherCatV1.21B27,2013-08-11 23:42:00,
2013-08-11 19:48:00,74.5,57.8,30.01,NNE,19,0.0,0.0,56,0.00,,,0.00,WeatherCatV1.21B27,2013-08-11 23:48:00,
2013-08-11 19:53:00,73.9,57.7,30.01,NNE,19,0.0,0.0,57,0.00,,,0.00,WeatherCatV1.21B27,2013-08-11 23:53:00,
2013-08-11 19:58:00,73.4,57.2,30.01,NNE,18,0.0,0.0,57,0.00,,,0.00,WeatherCatV1.21B27,2013-08-11 23:58:00,
2013-08-11 20:03:00,73.0,57.3,30.01,NNE,18,0.0,0.0,58,0.00,,,0.00,WeatherCatV1.21B27,2013-08-12 00:03:00,
2013-08-11 20:08:00,72.6,57.4,30.01,NNE,19,0.0,0.0,59,0.00,,,0.00,WeatherCatV1.21B27,2013-08-12 00:08:00,
2013-08-11 20:13:00,72.3,57.2,30.01,NNE,19,0.0,0.0,59,0.00,,,0.00,WeatherCatV1.21B27,2013-08-12 00:13:00,
2013-08-11 20:18:00,72.1,57.4,30.01,NNE,19,0.0,0.0,60,0.00,,,0.00,WeatherCatV1.21B27,2013-08-12 00:18:00,
2013-08-11 20:23:00,71.7,57.5,30.01,NNE,18,0.0,0.0,61,0.00,,,0.00,WeatherCatV1.21B27,2013-08-12 00:23:00,
2013-08-11 20:28:00,71.4,58.1,30.01,NNE,19,0.0,0.0,63,0.00,,,0.00,WeatherCatV1.21B27,2013-08-12 00:28:00,
2013-08-11 20:33:00,70.9,58.1,30.02,NNE,18,0.0,0.0,64,0.00,,,0.00,WeatherCatV1.21B27,2013-08-12 00:33:00,
2013-08-11 20:38:00,70.6,58.2,30.01,NNE,19,0.0,0.0,65,0.00,,,0.00,WeatherCatV1.21B27,2013-08-12 00:38:00,
2013-08-11 20:43:00,70.2,58.7,30.02,NNE,19,0.0,0.0,67,0.00,,,0.00,WeatherCatV1.21B27,2013-08-12 00:43:00,
2013-08-11 20:48:00,69.9,58.4,30.02,NNE,19,0.0,0.0,67,0.00,,,0.00,WeatherCatV1.21B27,2013-08-12 00:48:00,
2013-08-11 20:54:00,69.4,58.8,30.02,NNE,19,0.0,0.0,69,0.00,,,0.00,WeatherCatV1.21B27,2013-08-12 00:54:00,
2013-08-11 20:59:00,69.1,58.5,30.02,NNE,19,0.0,0.0,69,0.00,,,0.00,WeatherCatV1.21B27,2013-08-12 00:59:00,
2013-08-11 21:04:00,68.9,58.7,30.01,NNE,19,0.0,0.0,70,0.00,,,0.00,WeatherCatV1.21B27,2013-08-12 01:04:00,
2013-08-11 21:09:00,68.4,58.6,30.02,NNE,19,0.0,0.0,71,0.00,,,0.00,WeatherCatV1.21B27,2013-08-12 01:09:00,
2013-08-11 21:15:00,68.1,58.7,30.02,NNE,19,0.0,0.0,72,0.00,,,0.00,WeatherCatV1.21B27,2013-08-12 01:15:00,
2013-08-11 21:21:00,67.8,59.2,30.03,NNE,19,0.0,0.0,74,0.00,,,0.00,WeatherCatV1.21B27,2013-08-12 01:21:00,
2013-08-11 21:26:00,67.7,59.5,30.03,NNE,19,0.0,0.0,75,0.00,,,0.00,WeatherCatV1.21B27,2013-08-12 01:26:00,
2013-08-11 21:32:00,67.2,59.4,30.03,NNE,19,0.0,0.0,76,0.00,,,0.00,WeatherCatV1.21B27,2013-08-12 01:32:00,
2013-08-11 21:37:00,66.9,59.1,30.03,NNE,19,0.0,0.0,76,0.00,,,0.00,WeatherCatV1.21B27,2013-08-12 01:37:00,
2013-08-11 21:42:00,66.6,58.8,30.03,NNE,18,0.0,0.0,76,0.00,,,0.00,WeatherCatV1.21B27,2013-08-12 01:42:00,
2013-08-11 21:47:00,66.4,59.0,30.03,NNE,18,0.0,0.0,77,0.00,,,0.00,WeatherCatV1.21B27,2013-08-12 01:47:00,
2013-08-11 21:52:00,66.1,58.7,30.03,NNE,18,0.0,0.0,77,0.00,,,0.00,WeatherCatV1.21B27,2013-08-12 01:52:00,
2013-08-11 21:59:00,66.0,58.9,30.03,NNE,19,0.0,0.0,78,0.00,,,0.00,WeatherCatV1.21B27,2013-08-12 01:59:00,
2013-08-11 22:04:00,65.7,58.6,30.03,NNE,19,0.0,0.0,78,0.00,,,0.00,WeatherCatV1.21B27,2013-08-12 02:04:00,
2013-08-11 22:09:00,65.5,58.8,30.03,NNE,19,0.0,0.0,79,0.00,,,0.00,WeatherCatV1.21B27,2013-08-12 02:09:00,
2013-08-11 22:14:00,65.4,58.7,30.03,NNE,19,0.0,0.0,79,0.00,,,0.00,WeatherCatV1.21B27,2013-08-12 02:14:00,
2013-08-11 22:20:00,65.2,58.9,30.03,NNE,19,0.0,0.0,80,0.00,,,0.00,WeatherCatV1.21B27,2013-08-12 02:20:00,
2013-08-11 22:25:00,65.1,58.8,30.03,NNE,19,0.0,0.0,80,0.00,,,0.00,WeatherCatV1.21B27,2013-08-12 02:25:00,
2013-08-11 22:30:00,64.9,58.9,30.03,NNE,19,0.0,0.0,81,0.00,,,0.00,WeatherCatV1.21B27,2013-08-12 02:30:00,
2013-08-11 22:35:00,64.8,59.2,30.03,NNE,18,0.0,0.0,82,0.00,,,0.00,WeatherCatV1.21B27,2013-08-12 02:35:00,
2013-08-11 22:40:00,64.7,59.4,30.03,NNE,19,0.0,0.0,83,0.00,,,0.00,WeatherCatV1.21B27,2013-08-12 02:40:00,
2013-08-11 22:45:00,64.5,59.2,30.03,NNE,19,0.0,0.0,83,0.00,,,0.00,WeatherCatV1.21B27,2013-08-12 02:45:00,
2013-08-11 22:50:00,64.4,59.1,30.03,NNE,19,0.0,0.0,83,0.00,,,0.00,WeatherCatV1.21B27,2013-08-12 02:50:00,
2013-08-11 22:55:00,64.3,59.0,30.03,NNE,19,0.0,0.0,83,0.00,,,0.00,WeatherCatV1.21B27,2013-08-12 02:55:00,
2013-08-11 23:00:00,64.2,59.3,30.03,NNE,19,0.0,0.0,84,0.00,,,0.00,WeatherCatV1.21B27,2013-08-12 03:00:00,
2013-08-11 23:05:00,64.2,59.3,30.03,NNE,19,0.0,0.0,84,0.00,,,0.00,WeatherCatV1.21B27,2013-08-12 03:05:00,
2013-08-11 23:11:00,64.1,59.2,30.03,NNE,18,0.0,0.0,84,0.00,,,0.00,WeatherCatV1.21B27,2013-08-12 03:11:00,
2013-08-11 23:16:00,64.0,59.1,30.03,NNE,18,0.0,0.0,84,0.00,,,0.00,WeatherCatV1.21B27,2013-08-12 03:16:00,
2013-08-11 23:21:00,63.9,59.0,30.03,NNE,19,0.0,0.0,84,0.00,,,0.00,WeatherCatV1.21B27,2013-08-12 03:21:00,
2013-08-11 23:26:00,63.8,59.2,30.02,NNE,19,0.0,0.0,85,0.00,,,0.00,WeatherCatV1.21B27,2013-08-12 03:26:00,
2013-08-11 23:31:00,63.7,59.1,30.03,NNE,19,0.0,0.0,85,0.00,,,0.00,WeatherCatV1.21B27,2013-08-12 03:31:00,
2013-08-11 23:36:00,63.6,59.0,30.03,NNE,19,0.0,0.0,85,0.00,,,0.00,WeatherCatV1.21B27,2013-08-12 03:36:00,
2013-08-11 23:41:00,63.5,58.9,30.03,NNE,19,0.0,0.0,85,0.00,,,0.00,WeatherCatV1.21B27,2013-08-12 03:41:00,
2013-08-11 23:46:00,63.4,58.8,30.04,NNE,18,0.0,0.0,85,0.00,,,0.00,WeatherCatV1.21B27,2013-08-12 03:46:00,
2013-08-11 23:51:00,63.3,59.0,30.04,NNE,18,0.0,0.0,86,0.00,,,0.00,WeatherCatV1.21B27,2013-08-12 03:51:00,
2013-08-11 23:56:00,63.2,58.9,30.04,NNE,19,0.0,0.0,86,0.00,,,0.00,WeatherCatV1.21B27,2013-08-12 03:56:00,